sensor_id;sensor_type;location;lat;lon;timestamp;P1;durP1;ratioP1;P2;durP2;ratioP2
81815;SDS011;71249;52.084;5.304;2024-02-15T00:00:27;16.4;;;10.5;;
81815;SDS011;71249;52.084;5.304;2024-02-15T00:02:03;13.7;;;11.0;;
81815;SDS011;71249;52.084;5.304;2024-02-15T00:03:39;15.9;;;10.6;;
81815;SDS011;71249;52.084;5.304;2024-02-15T00:06:52;16.4;;;11.2;;
81815;SDS011;71249;52.084;5.304;2024-02-15T00:08:28;16.2;;;11.1;;
81815;SDS011;71249;52.084;5.304;2024-02-15T00:10:05;14.5;;;11.2;;
81815;SDS011;71249;52.084;5.304;2024-02-15T00:13:18;16.8;;;11.3;;
81815;SDS011;71249;52.084;5.304;2024-02-15T00:14:54;13.6;;;10.0;;
81815;SDS011;71249;52.084;5.304;2024-02-15T00:16:30;13.8;;;10.5;;
81815;SDS011;71249;52.084;5.304;2024-02-15T00:18:06;14.7;;;10.9;;
81815;SDS011;71249;52.084;5.304;2024-02-15T00:21:19;11.4;;;9.31;;
81815;SDS011;71249;52.084;5.304;2024-02-15T00:22:55;15.7;;;11.0;;
81815;SDS011;71249;52.084;5.304;2024-02-15T00:24:31;15.5;;;11.4;;
81815;SDS011;71249;52.084;5.304;2024-02-15T00:27:43;14.8;;;11.3;;
81815;SDS011;71249;52.084;5.304;2024-02-15T00:29:22;11.9;;;10.3;;
81815;SDS011;71249;52.084;5.304;2024-02-15T00:30:58;14.0;;;10.6;;
81815;SDS011;71249;52.084;5.304;2024-02-15T00:34:11;16.0;;;11.2;;
81815;SDS011;71249;52.084;5.304;2024-02-15T00:35:47;14.0;;;9.4;;
81815;SDS011;71249;52.084;5.304;2024-02-15T00:37:23;14.6;;;9.71;;
81815;SDS011;71249;52.084;5.304;2024-02-15T00:40:35;13.2;;;9.71;;
81815;SDS011;71249;52.084;5.304;2024-02-15T00:42:11;13.2;;;9.0;;
81815;SDS011;71249;52.084;5.304;2024-02-15T00:43:47;13.3;;;8.31;;
81815;SDS011;71249;52.084;5.304;2024-02-15T00:45:23;14.2;;;10.3;;
81815;SDS011;71249;52.084;5.304;2024-02-15T00:48:36;16.11;;;9.71;;
81815;SDS011;71249;52.084;5.304;2024-02-15T00:50:12;15.2;;;9.6;;
81815;SDS011;71249;52.084;5.304;2024-02-15T00:51:48;15.9;;;10.1;;
81815;SDS011;71249;52.084;5.304;2024-02-15T00:55:03;13.0;;;8.71;;
81815;SDS011;71249;52.084;5.304;2024-02-15T00:56:40;14.8;;;9.9;;
81815;SDS011;71249;52.084;5.304;2024-02-15T00:58:16;14.8;;;9.9;;
81815;SDS011;71249;52.084;5.304;2024-02-15T01:01:29;13.6;;;8.81;;
81815;SDS011;71249;52.084;5.304;2024-02-15T01:03:05;16.3;;;8.71;;
81815;SDS011;71249;52.084;5.304;2024-02-15T01:04:41;16.11;;;8.0;;
81815;SDS011;71249;52.084;5.304;2024-02-15T01:06:17;14.6;;;8.71;;
81815;SDS011;71249;52.084;5.304;2024-02-15T01:09:29;11.3;;;8.0;;
81815;SDS011;71249;52.084;5.304;2024-02-15T01:11:05;12.0;;;8.81;;
81815;SDS011;71249;52.084;5.304;2024-02-15T01:12:41;13.1;;;8.2;;
81815;SDS011;71249;52.084;5.304;2024-02-15T01:15:54;10.9;;;8.31;;
81815;SDS011;71249;52.084;5.304;2024-02-15T01:19:06;13.1;;;8.81;;
81815;SDS011;71249;52.084;5.304;2024-02-15T01:22:18;12.2;;;7.5;;
81815;SDS011;71249;52.084;5.304;2024-02-15T01:23:54;10.21;;;8.4;;
81815;SDS011;71249;52.084;5.304;2024-02-15T01:25:30;13.8;;;8.71;;
81815;SDS011;71249;52.084;5.304;2024-02-15T01:27:06;15.8;;;10.4;;
81815;SDS011;71249;52.084;5.304;2024-02-15T01:30:19;13.6;;;10.0;;
81815;SDS011;71249;52.084;5.304;2024-02-15T01:31:55;12.4;;;9.6;;
81815;SDS011;71249;52.084;5.304;2024-02-15T01:33:31;15.7;;;11.3;;
81815;SDS011;71249;52.084;5.304;2024-02-15T01:36:46;16.2;;;11.4;;
81815;SDS011;71249;52.084;5.304;2024-02-15T01:38:23;15.2;;;12.7;;
81815;SDS011;71249;52.084;5.304;2024-02-15T01:40:05;17.0;;;14.0;;
81815;SDS011;71249;52.084;5.304;2024-02-15T01:43:23;15.5;;;12.9;;
81815;SDS011;71249;52.084;5.304;2024-02-15T01:44:59;19.5;;;16.0;;
81815;SDS011;71249;52.084;5.304;2024-02-15T01:46:35;17.5;;;14.0;;
81815;SDS011;71249;52.084;5.304;2024-02-15T01:48:11;22.0;;;16.7;;
81815;SDS011;71249;52.084;5.304;2024-02-15T01:51:23;22.0;;;16.7;;
81815;SDS011;71249;52.084;5.304;2024-02-15T01:53:02;21.7;;;18.5;;
81815;SDS011;71249;52.084;5.304;2024-02-15T01:54:43;21.3;;;17.0;;
81815;SDS011;71249;52.084;5.304;2024-02-15T01:57:56;20.11;;;17.41;;
81815;SDS011;71249;52.084;5.304;2024-02-15T01:59:32;20.6;;;17.0;;
81815;SDS011;71249;52.084;5.304;2024-02-15T02:01:08;23.7;;;18.0;;
81815;SDS011;71249;52.084;5.304;2024-02-15T02:02:44;18.91;;;16.61;;
81815;SDS011;71249;52.084;5.304;2024-02-15T02:05:57;21.5;;;17.61;;
81815;SDS011;71249;52.084;5.304;2024-02-15T02:07:34;24.6;;;17.5;;
81815;SDS011;71249;52.084;5.304;2024-02-15T02:09:11;22.2;;;16.61;;
81815;SDS011;71249;52.084;5.304;2024-02-15T02:12:26;21.7;;;17.0;;
81815;SDS011;71249;52.084;5.304;2024-02-15T02:14:02;23.0;;;18.2;;
81815;SDS011;71249;52.084;5.304;2024-02-15T02:15:38;18.61;;;15.8;;
81815;SDS011;71249;52.084;5.304;2024-02-15T02:18:50;22.8;;;16.5;;
81815;SDS011;71249;52.084;5.304;2024-02-15T02:20:26;21.5;;;17.11;;
81815;SDS011;71249;52.084;5.304;2024-02-15T02:22:02;22.4;;;16.4;;
81815;SDS011;71249;52.084;5.304;2024-02-15T02:23:39;17.91;;;15.0;;
81815;SDS011;71249;52.084;5.304;2024-02-15T02:26:52;19.7;;;15.8;;
81815;SDS011;71249;52.084;5.304;2024-02-15T02:28:28;18.11;;;14.6;;
81815;SDS011;71249;52.084;5.304;2024-02-15T02:30:05;20.5;;;16.11;;
81815;SDS011;71249;52.084;5.304;2024-02-15T02:33:23;19.2;;;14.7;;
81815;SDS011;71249;52.084;5.304;2024-02-15T02:35:00;16.61;;;14.6;;
81815;SDS011;71249;52.084;5.304;2024-02-15T02:36:36;20.6;;;15.2;;
81815;SDS011;71249;52.084;5.304;2024-02-15T02:39:49;19.61;;;14.4;;
81815;SDS011;71249;52.084;5.304;2024-02-15T02:41:25;19.11;;;13.8;;
81815;SDS011;71249;52.084;5.304;2024-02-15T02:43:01;18.5;;;12.6;;
81815;SDS011;71249;52.084;5.304;2024-02-15T02:44:37;20.8;;;14.5;;
81815;SDS011;71249;52.084;5.304;2024-02-15T02:47:50;18.5;;;12.7;;
81815;SDS011;71249;52.084;5.304;2024-02-15T02:49:26;19.2;;;13.2;;
81815;SDS011;71249;52.084;5.304;2024-02-15T02:51:02;14.6;;;11.4;;
81815;SDS011;71249;52.084;5.304;2024-02-15T02:54:15;16.61;;;12.5;;
81815;SDS011;71249;52.084;5.304;2024-02-15T02:55:51;17.11;;;12.0;;
81815;SDS011;71249;52.084;5.304;2024-02-15T02:57:27;19.5;;;12.5;;
81815;SDS011;71249;52.084;5.304;2024-02-15T03:00:42;15.5;;;11.0;;
81815;SDS011;71249;52.084;5.304;2024-02-15T03:02:19;16.9;;;11.1;;
81815;SDS011;71249;52.084;5.304;2024-02-15T03:03:55;17.61;;;12.2;;
81815;SDS011;71249;52.084;5.304;2024-02-15T03:05:32;16.11;;;12.3;;
81815;SDS011;71249;52.084;5.304;2024-02-15T03:08:44;15.4;;;11.8;;
81815;SDS011;71249;52.084;5.304;2024-02-15T03:10:20;21.3;;;12.0;;
81815;SDS011;71249;52.084;5.304;2024-02-15T03:11:57;14.1;;;10.7;;
81815;SDS011;71249;52.084;5.304;2024-02-15T03:15:09;16.11;;;10.4;;
81815;SDS011;71249;52.084;5.304;2024-02-15T03:16:44;15.7;;;12.0;;
81815;SDS011;71249;52.084;5.304;2024-02-15T03:18:21;15.5;;;10.8;;
81815;SDS011;71249;52.084;5.304;2024-02-15T03:21:33;15.4;;;10.4;;
81815;SDS011;71249;52.084;5.304;2024-02-15T03:23:09;14.9;;;10.21;;
81815;SDS011;71249;52.084;5.304;2024-02-15T03:24:45;18.11;;;10.4;;
81815;SDS011;71249;52.084;5.304;2024-02-15T03:26:28;13.7;;;10.0;;
81815;SDS011;71249;52.084;5.304;2024-02-15T03:29:41;15.5;;;10.1;;
81815;SDS011;71249;52.084;5.304;2024-02-15T03:31:17;18.11;;;11.3;;
81815;SDS011;71249;52.084;5.304;2024-02-15T03:32:57;14.9;;;9.6;;
81815;SDS011;71249;52.084;5.304;2024-02-15T03:36:10;18.0;;;10.21;;
81815;SDS011;71249;52.084;5.304;2024-02-15T03:37:46;17.41;;;10.0;;
81815;SDS011;71249;52.084;5.304;2024-02-15T03:39:22;17.8;;;10.1;;
81815;SDS011;71249;52.084;5.304;2024-02-15T03:42:34;16.2;;;10.6;;
81815;SDS011;71249;52.084;5.304;2024-02-15T03:44:11;15.0;;;9.31;;
81815;SDS011;71249;52.084;5.304;2024-02-15T03:45:47;16.61;;;9.5;;
81815;SDS011;71249;52.084;5.304;2024-02-15T03:47:24;16.11;;;10.21;;
81815;SDS011;71249;52.084;5.304;2024-02-15T03:50:36;15.5;;;9.21;;
81815;SDS011;71249;52.084;5.304;2024-02-15T03:52:12;17.91;;;9.4;;
81815;SDS011;71249;52.084;5.304;2024-02-15T03:53:48;15.6;;;9.6;;
81815;SDS011;71249;52.084;5.304;2024-02-15T03:57:00;18.3;;;10.4;;
81815;SDS011;71249;52.084;5.304;2024-02-15T03:58:37;16.9;;;9.0;;
81815;SDS011;71249;52.084;5.304;2024-02-15T04:00:14;20.2;;;10.6;;
81815;SDS011;71249;52.084;5.304;2024-02-15T04:03:27;17.2;;;9.4;;
81815;SDS011;71249;52.084;5.304;2024-02-15T04:05:03;18.41;;;9.6;;
81815;SDS011;71249;52.084;5.304;2024-02-15T04:06:39;14.5;;;9.5;;
81815;SDS011;71249;52.084;5.304;2024-02-15T04:08:15;18.3;;;9.31;;
81815;SDS011;71249;52.084;5.304;2024-02-15T04:11:27;16.2;;;9.5;;
81815;SDS011;71249;52.084;5.304;2024-02-15T04:13:03;14.8;;;9.21;;
81815;SDS011;71249;52.084;5.304;2024-02-15T04:14:40;17.5;;;8.9;;
81815;SDS011;71249;52.084;5.304;2024-02-15T04:17:52;15.2;;;9.4;;
81815;SDS011;71249;52.084;5.304;2024-02-15T04:19:28;20.2;;;10.1;;
81815;SDS011;71249;52.084;5.304;2024-02-15T04:21:04;16.11;;;9.6;;
81815;SDS011;71249;52.084;5.304;2024-02-15T04:24:16;15.6;;;9.31;;
81815;SDS011;71249;52.084;5.304;2024-02-15T04:25:52;15.6;;;8.71;;
81815;SDS011;71249;52.084;5.304;2024-02-15T04:27:28;17.5;;;9.31;;
81815;SDS011;71249;52.084;5.304;2024-02-15T04:30:41;16.3;;;8.31;;
81815;SDS011;71249;52.084;5.304;2024-02-15T04:32:17;20.0;;;8.9;;
81815;SDS011;71249;52.084;5.304;2024-02-15T04:33:53;14.0;;;8.1;;
81815;SDS011;71249;52.084;5.304;2024-02-15T04:35:29;14.2;;;8.2;;
81815;SDS011;71249;52.084;5.304;2024-02-15T04:38:41;18.0;;;8.31;;
81815;SDS011;71249;52.084;5.304;2024-02-15T04:40:17;18.91;;;9.21;;
81815;SDS011;71249;52.084;5.304;2024-02-15T04:41:54;19.11;;;9.5;;
81815;SDS011;71249;52.084;5.304;2024-02-15T04:45:06;19.2;;;8.2;;
81815;SDS011;71249;52.084;5.304;2024-02-15T04:46:43;19.61;;;8.2;;
81815;SDS011;71249;52.084;5.304;2024-02-15T04:48:19;17.7;;;9.1;;
81815;SDS011;71249;52.084;5.304;2024-02-15T04:51:31;18.41;;;8.4;;
81815;SDS011;71249;52.084;5.304;2024-02-15T04:53:07;17.61;;;9.4;;
81815;SDS011;71249;52.084;5.304;2024-02-15T04:54:43;20.7;;;9.81;;
81815;SDS011;71249;52.084;5.304;2024-02-15T04:56:23;18.11;;;9.21;;
81815;SDS011;71249;52.084;5.304;2024-02-15T04:59:35;15.3;;;8.71;;
81815;SDS011;71249;52.084;5.304;2024-02-15T05:01:12;17.8;;;9.0;;
81815;SDS011;71249;52.084;5.304;2024-02-15T05:02:49;19.41;;;10.3;;
81815;SDS011;71249;52.084;5.304;2024-02-15T05:06:01;17.61;;;9.5;;
81815;SDS011;71249;52.084;5.304;2024-02-15T05:07:37;16.11;;;9.21;;
81815;SDS011;71249;52.084;5.304;2024-02-15T05:09:13;15.0;;;7.9;;
81815;SDS011;71249;52.084;5.304;2024-02-15T05:12:26;19.0;;;8.5;;
81815;SDS011;71249;52.084;5.304;2024-02-15T05:14:02;14.2;;;7.9;;
81815;SDS011;71249;52.084;5.304;2024-02-15T05:15:38;16.2;;;9.71;;
81815;SDS011;71249;52.084;5.304;2024-02-15T05:17:14;19.3;;;9.31;;
81815;SDS011;71249;52.084;5.304;2024-02-15T05:20:26;15.9;;;9.4;;
81815;SDS011;71249;52.084;5.304;2024-02-15T05:22:02;17.41;;;10.1;;
81815;SDS011;71249;52.084;5.304;2024-02-15T05:23:38;17.11;;;9.81;;
81815;SDS011;71249;52.084;5.304;2024-02-15T05:26:51;17.2;;;9.5;;
81815;SDS011;71249;52.084;5.304;2024-02-15T05:28:27;17.7;;;10.4;;
81815;SDS011;71249;52.084;5.304;2024-02-15T05:30:03;17.5;;;10.4;;
81815;SDS011;71249;52.084;5.304;2024-02-15T05:33:17;16.4;;;9.71;;
81815;SDS011;71249;52.084;5.304;2024-02-15T05:34:53;15.7;;;9.4;;
81815;SDS011;71249;52.084;5.304;2024-02-15T05:36:29;14.5;;;9.21;;
81815;SDS011;71249;52.084;5.304;2024-02-15T05:39:42;15.5;;;8.5;;
81815;SDS011;71249;52.084;5.304;2024-02-15T05:41:21;15.7;;;9.0;;
81815;SDS011;71249;52.084;5.304;2024-02-15T05:42:57;15.3;;;9.5;;
81815;SDS011;71249;52.084;5.304;2024-02-15T05:44:33;14.7;;;9.0;;
81815;SDS011;71249;52.084;5.304;2024-02-15T05:47:46;14.0;;;9.6;;
81815;SDS011;71249;52.084;5.304;2024-02-15T05:49:22;13.3;;;8.9;;
81815;SDS011;71249;52.084;5.304;2024-02-15T05:50:58;15.6;;;9.1;;
81815;SDS011;71249;52.084;5.304;2024-02-15T05:54:14;12.2;;;8.4;;
81815;SDS011;71249;52.084;5.304;2024-02-15T05:55:50;13.2;;;8.5;;
81815;SDS011;71249;52.084;5.304;2024-02-15T05:57:26;15.1;;;10.0;;
81815;SDS011;71249;52.084;5.304;2024-02-15T06:00:38;15.1;;;10.0;;
81815;SDS011;71249;52.084;5.304;2024-02-15T06:02:14;14.6;;;9.0;;
81815;SDS011;71249;52.084;5.304;2024-02-15T06:03:50;13.2;;;9.1;;
81815;SDS011;71249;52.084;5.304;2024-02-15T06:05:26;10.7;;;8.81;;
81815;SDS011;71249;52.084;5.304;2024-02-15T06:08:39;14.2;;;9.5;;
81815;SDS011;71249;52.084;5.304;2024-02-15T06:10:15;12.3;;;8.2;;
81815;SDS011;71249;52.084;5.304;2024-02-15T06:11:51;12.5;;;8.2;;
81815;SDS011;71249;52.084;5.304;2024-02-15T06:15:07;11.0;;;7.4;;
81815;SDS011;71249;52.084;5.304;2024-02-15T06:16:43;13.4;;;8.31;;
81815;SDS011;71249;52.084;5.304;2024-02-15T06:18:19;10.1;;;8.4;;
81815;SDS011;71249;52.084;5.304;2024-02-15T06:21:32;13.6;;;8.5;;
81815;SDS011;71249;52.084;5.304;2024-02-15T06:23:08;11.1;;;7.7;;
81815;SDS011;71249;52.084;5.304;2024-02-15T06:24:45;13.0;;;8.81;;
81815;SDS011;71249;52.084;5.304;2024-02-15T06:26:21;12.4;;;9.1;;
81815;SDS011;71249;52.084;5.304;2024-02-15T06:29:33;11.0;;;7.9;;
81815;SDS011;71249;52.084;5.304;2024-02-15T06:31:09;11.8;;;8.6;;
81815;SDS011;71249;52.084;5.304;2024-02-15T06:32:46;11.5;;;8.81;;
81815;SDS011;71249;52.084;5.304;2024-02-15T06:35:58;12.9;;;8.2;;
81815;SDS011;71249;52.084;5.304;2024-02-15T06:37:35;13.0;;;9.6;;
81815;SDS011;71249;52.084;5.304;2024-02-15T06:39:12;12.2;;;8.5;;
81815;SDS011;71249;52.084;5.304;2024-02-15T06:42:24;12.5;;;9.0;;
81815;SDS011;71249;52.084;5.304;2024-02-15T06:44:00;12.3;;;9.5;;
81815;SDS011;71249;52.084;5.304;2024-02-15T06:45:36;14.4;;;10.0;;
81815;SDS011;71249;52.084;5.304;2024-02-15T06:47:12;11.3;;;8.4;;
81815;SDS011;71249;52.084;5.304;2024-02-15T06:50:25;11.1;;;9.21;;
81815;SDS011;71249;52.084;5.304;2024-02-15T06:52:01;10.9;;;8.9;;
81815;SDS011;71249;52.084;5.304;2024-02-15T06:53:38;12.0;;;10.1;;
81815;SDS011;71249;52.084;5.304;2024-02-15T06:56:51;10.5;;;9.0;;
81815;SDS011;71249;52.084;5.304;2024-02-15T06:58:27;11.9;;;10.7;;
81815;SDS011;71249;52.084;5.304;2024-02-15T07:00:03;11.6;;;9.31;;
81815;SDS011;71249;52.084;5.304;2024-02-15T07:03:16;13.1;;;10.21;;
81815;SDS011;71249;52.084;5.304;2024-02-15T07:04:52;12.4;;;10.1;;
81815;SDS011;71249;52.084;5.304;2024-02-15T07:06:28;14.4;;;10.8;;
81815;SDS011;71249;52.084;5.304;2024-02-15T07:09:41;14.4;;;10.8;;
81815;SDS011;71249;52.084;5.304;2024-02-15T07:11:18;12.6;;;10.21;;
81815;SDS011;71249;52.084;5.304;2024-02-15T07:12:54;11.5;;;9.6;;
81815;SDS011;71249;52.084;5.304;2024-02-15T07:14:30;11.4;;;8.6;;
81815;SDS011;71249;52.084;5.304;2024-02-15T07:17:43;10.9;;;9.31;;
81815;SDS011;71249;52.084;5.304;2024-02-15T07:19:19;15.4;;;10.8;;
81815;SDS011;71249;52.084;5.304;2024-02-15T07:20:55;11.7;;;9.0;;
81815;SDS011;71249;52.084;5.304;2024-02-15T07:24:07;12.1;;;9.6;;
81815;SDS011;71249;52.084;5.304;2024-02-15T07:25:44;12.5;;;9.0;;
81815;SDS011;71249;52.084;5.304;2024-02-15T07:27:20;12.1;;;9.4;;
81815;SDS011;71249;52.084;5.304;2024-02-15T07:30:32;10.0;;;8.1;;
81815;SDS011;71249;52.084;5.304;2024-02-15T07:32:08;9.71;;;8.31;;
81815;SDS011;71249;52.084;5.304;2024-02-15T07:33:44;9.71;;;8.71;;
81815;SDS011;71249;52.084;5.304;2024-02-15T07:35:20;9.0;;;8.1;;
81815;SDS011;71249;52.084;5.304;2024-02-15T07:38:32;14.0;;;11.1;;
81815;SDS011;71249;52.084;5.304;2024-02-15T07:40:09;10.0;;;7.9;;
81815;SDS011;71249;52.084;5.304;2024-02-15T07:41:45;11.8;;;8.9;;
81815;SDS011;71249;52.084;5.304;2024-02-15T07:45:01;10.3;;;8.2;;
81815;SDS011;71249;52.084;5.304;2024-02-15T07:46:37;8.1;;;6.5;;
81815;SDS011;71249;52.084;5.304;2024-02-15T07:48:13;12.8;;;7.2;;
81815;SDS011;71249;52.084;5.304;2024-02-15T07:51:25;12.2;;;7.4;;
81815;SDS011;71249;52.084;5.304;2024-02-15T07:53:02;6.5;;;5.8;;
81815;SDS011;71249;52.084;5.304;2024-02-15T07:54:37;7.5;;;6.8;;
81815;SDS011;71249;52.084;5.304;2024-02-15T07:56:16;6.3;;;5.7;;
81815;SDS011;71249;52.084;5.304;2024-02-15T07:59:30;8.71;;;5.6;;
81815;SDS011;71249;52.084;5.304;2024-02-15T08:01:06;5.8;;;5.2;;
81815;SDS011;71249;52.084;5.304;2024-02-15T08:02:42;10.8;;;7.4;;
81815;SDS011;71249;52.084;5.304;2024-02-15T08:05:55;7.4;;;5.9;;
81815;SDS011;71249;52.084;5.304;2024-02-15T08:07:31;8.31;;;6.6;;
81815;SDS011;71249;52.084;5.304;2024-02-15T08:09:07;8.5;;;5.8;;
81815;SDS011;71249;52.084;5.304;2024-02-15T08:12:19;6.2;;;5.6;;
81815;SDS011;71249;52.084;5.304;2024-02-15T08:13:56;8.0;;;5.11;;
81815;SDS011;71249;52.084;5.304;2024-02-15T08:15:32;9.81;;;6.7;;
81815;SDS011;71249;52.084;5.304;2024-02-15T08:17:08;6.2;;;5.6;;
81815;SDS011;71249;52.084;5.304;2024-02-15T08:20:21;6.7;;;5.0;;
81815;SDS011;71249;52.084;5.304;2024-02-15T08:21:57;9.1;;;5.3;;
81815;SDS011;71249;52.084;5.304;2024-02-15T08:23:38;5.9;;;5.3;;
81815;SDS011;71249;52.084;5.304;2024-02-15T08:26:50;7.0;;;5.6;;
81815;SDS011;71249;52.084;5.304;2024-02-15T08:28:26;6.3;;;4.8;;
81815;SDS011;71249;52.084;5.304;2024-02-15T08:30:03;6.5;;;5.5;;
81815;SDS011;71249;52.084;5.304;2024-02-15T08:33:17;8.31;;;6.9;;
81815;SDS011;71249;52.084;5.304;2024-02-15T08:34:53;6.0;;;5.4;;
81815;SDS011;71249;52.084;5.304;2024-02-15T08:36:29;6.0;;;5.4;;
81815;SDS011;71249;52.084;5.304;2024-02-15T08:38:05;7.2;;;5.2;;
81815;SDS011;71249;52.084;5.304;2024-02-15T08:41:17;13.8;;;8.4;;
81815;SDS011;71249;52.084;5.304;2024-02-15T08:42:53;7.4;;;5.5;;
81815;SDS011;71249;52.084;5.304;2024-02-15T08:44:29;7.2;;;5.5;;
81815;SDS011;71249;52.084;5.304;2024-02-15T08:47:42;5.11;;;4.3;;
81815;SDS011;71249;52.084;5.304;2024-02-15T08:49:19;4.91;;;4.41;;
81815;SDS011;71249;52.084;5.304;2024-02-15T08:50:55;7.3;;;5.2;;
81815;SDS011;71249;52.084;5.304;2024-02-15T08:54:10;5.8;;;4.1;;
81815;SDS011;71249;52.084;5.304;2024-02-15T08:55:47;5.7;;;4.2;;
81815;SDS011;71249;52.084;5.304;2024-02-15T08:57:23;5.2;;;4.3;;
81815;SDS011;71249;52.084;5.304;2024-02-15T08:58:59;5.5;;;3.8;;
81815;SDS011;71249;52.084;5.304;2024-02-15T09:02:12;5.3;;;3.7;;
81815;SDS011;71249;52.084;5.304;2024-02-15T09:03:51;5.6;;;3.8;;
81815;SDS011;71249;52.084;5.304;2024-02-15T09:05:27;5.0;;;3.9;;
81815;SDS011;71249;52.084;5.304;2024-02-15T09:08:39;5.6;;;3.5;;
81815;SDS011;71249;52.084;5.304;2024-02-15T09:10:15;5.6;;;3.4;;
81815;SDS011;71249;52.084;5.304;2024-02-15T09:11:52;6.3;;;3.5;;
81815;SDS011;71249;52.084;5.304;2024-02-15T09:15:05;4.61;;;3.3;;
81815;SDS011;71249;52.084;5.304;2024-02-15T09:16:41;6.1;;;3.3;;
81815;SDS011;71249;52.084;5.304;2024-02-15T09:18:17;4.0;;;3.5;;
81815;SDS011;71249;52.084;5.304;2024-02-15T09:19:54;5.3;;;3.3;;
81815;SDS011;71249;52.084;5.304;2024-02-15T09:23:06;5.0;;;3.5;;
81815;SDS011;71249;52.084;5.304;2024-02-15T09:24:42;4.91;;;3.0;;
81815;SDS011;71249;52.084;5.304;2024-02-15T09:26:18;5.9;;;3.5;;
81815;SDS011;71249;52.084;5.304;2024-02-15T09:29:30;5.7;;;3.2;;
81815;SDS011;71249;52.084;5.304;2024-02-15T09:31:06;4.5;;;3.6;;
81815;SDS011;71249;52.084;5.304;2024-02-15T09:32:43;6.8;;;3.8;;
81815;SDS011;71249;52.084;5.304;2024-02-15T09:35:56;5.8;;;3.9;;
81815;SDS011;71249;52.084;5.304;2024-02-15T09:37:32;4.61;;;3.3;;
81815;SDS011;71249;52.084;5.304;2024-02-15T09:39:08;5.0;;;3.5;;
81815;SDS011;71249;52.084;5.304;2024-02-15T09:42:24;7.0;;;4.41;;
81815;SDS011;71249;52.084;5.304;2024-02-15T09:44:00;6.4;;;3.7;;
81815;SDS011;71249;52.084;5.304;2024-02-15T09:45:36;7.4;;;3.8;;
81815;SDS011;71249;52.084;5.304;2024-02-15T09:47:12;7.0;;;4.0;;
81815;SDS011;71249;52.084;5.304;2024-02-15T09:50:32;7.4;;;3.7;;
81815;SDS011;71249;52.084;5.304;2024-02-15T09:52:11;7.1;;;4.0;;
81815;SDS011;71249;52.084;5.304;2024-02-15T09:53:47;8.5;;;4.1;;
81815;SDS011;71249;52.084;5.304;2024-02-15T09:57:01;8.0;;;3.9;;
81815;SDS011;71249;52.084;5.304;2024-02-15T09:58:38;6.8;;;4.2;;
81815;SDS011;71249;52.084;5.304;2024-02-15T10:00:17;8.31;;;4.2;;
81815;SDS011;71249;52.084;5.304;2024-02-15T10:01:55;7.5;;;4.1;;
81815;SDS011;71249;52.084;5.304;2024-02-15T10:05:13;8.81;;;4.41;;
81815;SDS011;71249;52.084;5.304;2024-02-15T10:06:50;8.5;;;4.0;;
81815;SDS011;71249;52.084;5.304;2024-02-15T10:08:26;10.7;;;4.5;;
81815;SDS011;71249;52.084;5.304;2024-02-15T10:11:53;9.31;;;4.3;;
81815;SDS011;71249;52.084;5.304;2024-02-15T10:13:30;9.4;;;4.7;;
81815;SDS011;71249;52.084;5.304;2024-02-15T10:15:06;7.6;;;3.8;;
81815;SDS011;71249;52.084;5.304;2024-02-15T10:16:43;8.4;;;4.0;;
81815;SDS011;71249;52.084;5.304;2024-02-15T10:20:03;8.71;;;4.2;;
81815;SDS011;71249;52.084;5.304;2024-02-15T10:21:41;8.0;;;3.8;;
81815;SDS011;71249;52.084;5.304;2024-02-15T10:23:17;9.9;;;4.1;;
81815;SDS011;71249;52.084;5.304;2024-02-15T10:24:53;10.5;;;4.41;;
81815;SDS011;71249;52.084;5.304;2024-02-15T10:28:24;8.2;;;4.41;;
81815;SDS011;71249;52.084;5.304;2024-02-15T10:30:06;8.0;;;4.2;;
81815;SDS011;71249;52.084;5.304;2024-02-15T10:31:52;9.21;;;4.91;;
81815;SDS011;71249;52.084;5.304;2024-02-15T10:33:29;7.7;;;3.9;;
81815;SDS011;71249;52.084;5.304;2024-02-15T10:36:42;8.5;;;4.3;;
81815;SDS011;71249;52.084;5.304;2024-02-15T10:38:19;7.7;;;4.5;;
81815;SDS011;71249;52.084;5.304;2024-02-15T10:40:04;10.1;;;4.1;;
81815;SDS011;71249;52.084;5.304;2024-02-15T10:41:41;8.2;;;4.3;;
81815;SDS011;71249;52.084;5.304;2024-02-15T10:44:55;8.5;;;3.8;;
81815;SDS011;71249;52.084;5.304;2024-02-15T10:46:33;8.71;;;4.7;;
81815;SDS011;71249;52.084;5.304;2024-02-15T10:48:09;9.21;;;4.2;;
81815;SDS011;71249;52.084;5.304;2024-02-15T10:51:21;11.7;;;4.41;;
81815;SDS011;71249;52.084;5.304;2024-02-15T10:53:00;7.7;;;4.5;;
81815;SDS011;71249;52.084;5.304;2024-02-15T10:54:56;8.6;;;4.5;;
81815;SDS011;71249;52.084;5.304;2024-02-15T10:56:41;10.1;;;4.91;;
81815;SDS011;71249;52.084;5.304;2024-02-15T10:58:19;8.71;;;4.61;;
81815;SDS011;71249;52.084;5.304;2024-02-15T11:01:35;11.4;;;5.3;;
81815;SDS011;71249;52.084;5.304;2024-02-15T11:03:14;9.9;;;4.91;;
81815;SDS011;71249;52.084;5.304;2024-02-15T11:05:01;9.9;;;4.91;;
81815;SDS011;71249;52.084;5.304;2024-02-15T11:06:42;11.6;;;4.91;;
81815;SDS011;71249;52.084;5.304;2024-02-15T11:09:55;10.3;;;4.7;;
81815;SDS011;71249;52.084;5.304;2024-02-15T11:11:32;12.5;;;5.5;;
81815;SDS011;71249;52.084;5.304;2024-02-15T11:13:08;10.4;;;5.2;;
81815;SDS011;71249;52.084;5.304;2024-02-15T11:16:45;11.4;;;5.6;;
81815;SDS011;71249;52.084;5.304;2024-02-15T11:18:41;11.5;;;5.6;;
81815;SDS011;71249;52.084;5.304;2024-02-15T11:20:53;9.0;;;5.8;;
81815;SDS011;71249;52.084;5.304;2024-02-15T11:22:32;11.4;;;5.9;;
81815;SDS011;71249;52.084;5.304;2024-02-15T11:24:24;10.1;;;6.5;;
81815;SDS011;71249;52.084;5.304;2024-02-15T11:26:01;9.9;;;5.6;;
81815;SDS011;71249;52.084;5.304;2024-02-15T11:27:37;9.81;;;6.0;;
81815;SDS011;71249;52.084;5.304;2024-02-15T11:32:07;11.0;;;5.9;;
81815;SDS011;71249;52.084;5.304;2024-02-15T11:35:20;11.0;;;6.4;;
81815;SDS011;71249;52.084;5.304;2024-02-15T11:36:57;12.2;;;6.3;;
81815;SDS011;71249;52.084;5.304;2024-02-15T11:38:34;11.0;;;6.4;;
81815;SDS011;71249;52.084;5.304;2024-02-15T11:40:11;11.3;;;6.7;;
81815;SDS011;71249;52.084;5.304;2024-02-15T11:44:01;10.6;;;6.2;;
81815;SDS011;71249;52.084;5.304;2024-02-15T11:45:37;9.81;;;6.2;;
81815;SDS011;71249;52.084;5.304;2024-02-15T11:47:16;9.1;;;5.7;;
81815;SDS011;71249;52.084;5.304;2024-02-15T11:48:54;9.9;;;6.8;;
81815;SDS011;71249;52.084;5.304;2024-02-15T11:50:33;10.21;;;7.4;;
81815;SDS011;71249;52.084;5.304;2024-02-15T11:53:57;8.2;;;6.2;;
81815;SDS011;71249;52.084;5.304;2024-02-15T11:55:33;11.7;;;6.9;;
81815;SDS011;71249;52.084;5.304;2024-02-15T11:57:10;9.4;;;5.8;;
81815;SDS011;71249;52.084;5.304;2024-02-15T12:00:37;11.4;;;6.7;;
81815;SDS011;71249;52.084;5.304;2024-02-15T12:02:14;11.0;;;7.3;;
81815;SDS011;71249;52.084;5.304;2024-02-15T12:03:52;12.0;;;6.9;;
81815;SDS011;71249;52.084;5.304;2024-02-15T12:05:28;9.0;;;6.7;;
81815;SDS011;71249;52.084;5.304;2024-02-15T12:08:43;9.5;;;6.8;;
81815;SDS011;71249;52.084;5.304;2024-02-15T12:10:20;9.21;;;6.1;;
81815;SDS011;71249;52.084;5.304;2024-02-15T12:11:57;7.7;;;5.9;;
81815;SDS011;71249;52.084;5.304;2024-02-15T12:13:34;10.21;;;6.6;;
81815;SDS011;71249;52.084;5.304;2024-02-15T12:16:46;11.9;;;7.0;;
81815;SDS011;71249;52.084;5.304;2024-02-15T12:18:21;9.1;;;6.4;;
81815;SDS011;71249;52.084;5.304;2024-02-15T12:19:59;10.1;;;5.8;;
81815;SDS011;71249;52.084;5.304;2024-02-15T12:23:14;9.31;;;5.9;;
81815;SDS011;71249;52.084;5.304;2024-02-15T12:24:52;9.81;;;6.1;;
81815;SDS011;71249;52.084;5.304;2024-02-15T12:26:30;8.9;;;5.7;;
81815;SDS011;71249;52.084;5.304;2024-02-15T12:29:43;8.0;;;5.7;;
81815;SDS011;71249;52.084;5.304;2024-02-15T12:31:19;8.2;;;5.5;;
81815;SDS011;71249;52.084;5.304;2024-02-15T12:33:08;8.71;;;5.5;;
81815;SDS011;71249;52.084;5.304;2024-02-15T12:34:45;13.7;;;5.8;;
81815;SDS011;71249;52.084;5.304;2024-02-15T12:38:01;8.31;;;5.6;;
81815;SDS011;71249;52.084;5.304;2024-02-15T12:39:38;6.7;;;4.91;;
81815;SDS011;71249;52.084;5.304;2024-02-15T12:41:18;7.3;;;4.91;;
81815;SDS011;71249;52.084;5.304;2024-02-15T12:42:55;8.81;;;4.8;;
81815;SDS011;71249;52.084;5.304;2024-02-15T12:46:08;7.8;;;5.2;;
81815;SDS011;71249;52.084;5.304;2024-02-15T12:49:27;8.1;;;5.11;;